Time;durP1;ratioP1;P1;durP2;ratioP2;P2;SDS_P1;SDS_P2;PMS_P1;PMS_P2;Temp;Humidity;BMP_temperature;BMP_pressure;BME280_temperature;BME280_humidity;BME280_pressure;Samples;Min_cycle;Max_cycle;Signal;HPM_P1;HPM_P2
2021/10/22 00:01:23;;;;;;;0.50;0.40;;;6.80;99.90;;;;;;5010952;28;20227;-79
2021/10/22 00:03:50;;;;;;;0.82;0.73;;;6.80;99.90;;;;;;5011509;28;20200;-78
2021/10/22 00:06:18;;;;;;;1.30;1.20;;;6.80;99.90;;;;;;5011744;28;20574;-78
2021/10/22 00:08:45;;;;;;;0.50;0.40;;;6.80;99.90;;;;;;5011318;28;20192;-79
2021/10/22 00:11:12;;;;;;;0.50;0.40;;;6.80;99.90;;;;;;5010936;28;20220;-78
2021/10/22 00:13:39;;;;;;;0.50;0.40;;;6.80;99.90;;;;;;5011693;28;20197;-77
2021/10/22 00:16:06;;;;;;;0.50;0.40;;;6.80;99.90;;;;;;5011287;28;20196;-77
2021/10/22 00:18:33;;;;;;;2.38;2.17;;;6.80;99.90;;;;;;5011098;28;20704;-77
2021/10/22 00:21:00;;;;;;;0.50;0.40;;;6.90;99.90;;;;;;5010999;28;20203;-78
2021/10/22 00:23:28;;;;;;;0.50;0.40;;;6.90;99.90;;;;;;5014787;28;20196;-78
2021/10/22 00:25:55;;;;;;;6.20;3.05;;;7.00;99.90;;;;;;5014669;28;20200;-78
2021/10/22 00:28:21;;;;;;;1.85;1.65;;;7.00;99.90;;;;;;5014718;28;20196;-78
2021/10/22 00:30:48;;;;;;;1.05;1.05;;;7.00;99.90;;;;;;5014435;28;20201;-78
2021/10/22 00:33:15;;;;;;;0.50;0.40;;;7.00;99.90;;;;;;5014611;28;20196;-78
2021/10/22 00:35:42;;;;;;;0.50;0.40;;;7.00;99.90;;;;;;5014460;28;20216;-79
2021/10/22 00:38:09;;;;;;;0.50;0.40;;;7.00;99.90;;;;;;5014752;28;20709;-78
2021/10/22 00:40:37;;;;;;;0.50;0.40;;;7.00;99.90;;;;;;5014299;28;20196;-78
2021/10/22 00:43:05;;;;;;;0.50;0.40;;;7.00;99.90;;;;;;5014562;28;20225;-78
2021/10/22 00:45:32;;;;;;;0.50;0.40;;;7.00;99.90;;;;;;5014263;28;20207;-78
2021/10/22 00:47:59;;;;;;;0.50;0.40;;;7.10;99.90;;;;;;5014440;28;20262;-76
2021/10/22 00:50:27;;;;;;;0.50;0.40;;;7.10;99.90;;;;;;5014366;28;20197;-78
2021/10/22 00:52:54;;;;;;;0.50;0.40;;;7.10;99.90;;;;;;5013796;28;20248;-75
2021/10/22 00:55:20;;;;;;;7.60;1.48;;;7.10;99.90;;;;;;5014444;28;20193;-79
2021/10/22 00:57:49;;;;;;;0.50;0.40;;;7.10;99.90;;;;;;5014160;28;20224;-78
2021/10/22 01:00:16;;;;;;;0.50;0.40;;;7.10;99.90;;;;;;5014061;28;20198;-79
2021/10/22 01:02:42;;;;;;;0.50;0.40;;;7.10;99.90;;;;;;5014246;28;20223;-79
2021/10/22 01:05:12;;;;;;;0.60;0.50;;;7.20;99.90;;;;;;5014469;28;20196;-78
2021/10/22 01:07:41;;;;;;;0.50;0.40;;;7.20;99.90;;;;;;5013841;28;20243;-78
2021/10/22 01:10:09;;;;;;;0.50;0.40;;;7.20;99.90;;;;;;5013457;28;20242;-78
2021/10/22 01:12:36;;;;;;;0.90;0.75;;;7.20;99.90;;;;;;5014198;28;20222;-79
2021/10/22 01:15:05;;;;;;;6.63;2.00;;;7.20;99.90;;;;;;5013564;28;20200;-78
2021/10/22 01:17:34;;;;;;;0.50;0.45;;;7.20;99.90;;;;;;5014241;28;20220;-79
2021/10/22 01:20:00;;;;;;;4.85;1.88;;;7.20;99.90;;;;;;5013293;28;20692;-81
2021/10/22 01:22:28;;;;;;;0.50;0.40;;;7.20;99.90;;;;;;5013426;28;20227;-78
2021/10/22 01:24:56;;;;;;;1.40;0.63;;;7.10;99.90;;;;;;5013298;28;20203;-75
2021/10/22 01:27:24;;;;;;;0.52;0.52;;;7.10;99.90;;;;;;5013829;28;20199;-79
2021/10/22 01:29:50;;;;;;;10.82;2.38;;;7.00;99.90;;;;;;5013549;28;20200;-78
2021/10/22 01:32:17;;;;;;;0.50;0.50;;;6.90;99.90;;;;;;5013113;28;20224;-79
2021/10/22 01:34:45;;;;;;;2.00;1.90;;;6.80;99.90;;;;;;5013530;28;20211;-79
2021/10/22 01:37:12;;;;;;;0.57;0.55;;;6.80;99.90;;;;;;5013705;28;20682;-79
2021/10/22 01:39:40;;;;;;;0.50;0.40;;;6.70;99.90;;;;;;5013264;28;20208;-78
2021/10/22 01:42:07;;;;;;;0.50;0.40;;;6.60;99.90;;;;;;5013439;28;20212;-76
2021/10/22 01:44:34;;;;;;;1.00;1.00;;;6.60;99.90;;;;;;5013219;28;20292;-78
2021/10/22 01:47:01;;;;;;;3.05;0.60;;;6.60;99.90;;;;;;5013402;28;20193;-78
2021/10/22 01:49:27;;;;;;;0.75;0.50;;;6.60;99.90;;;;;;5013307;28;20204;-79
2021/10/22 01:51:54;;;;;;;0.60;0.60;;;6.60;99.90;;;;;;5012920;28;20227;-77
2021/10/22 01:54:21;;;;;;;3.15;1.88;;;6.50;99.90;;;;;;5012587;28;20215;-79
2021/10/22 01:56:49;;;;;;;1.50;1.40;;;6.50;99.90;;;;;;5012881;28;20204;-78
2021/10/22 01:59:16;;;;;;;5.82;1.73;;;6.40;99.90;;;;;;5013117;28;20569;-78
2021/10/22 02:01:43;;;;;;;1.60;1.60;;;6.40;99.90;;;;;;5012875;28;20224;-78
2021/10/22 02:04:10;;;;;;;0.60;0.50;;;6.40;99.90;;;;;;5012948;28;20720;-78
2021/10/22 02:06:37;;;;;;;1.30;1.10;;;6.30;99.90;;;;;;5012936;28;20216;-78
2021/10/22 02:09:04;;;;;;;0.50;0.40;;;6.30;99.90;;;;;;5012497;28;20196;-79
2021/10/22 02:11:30;;;;;;;9.20;0.70;;;6.30;99.90;;;;;;5012534;28;20243;-77
2021/10/22 02:13:58;;;;;;;2.45;0.60;;;6.20;99.90;;;;;;5013119;28;20200;-77
2021/10/22 02:16:25;;;;;;;0.57;0.57;;;6.20;99.90;;;;;;5012632;28;20254;-78
2021/10/22 02:18:53;;;;;;;0.73;0.68;;;6.20;99.90;;;;;;5012758;28;20722;-78
2021/10/22 02:21:20;;;;;;;2.25;1.50;;;6.10;99.90;;;;;;5012096;28;20221;-76
2021/10/22 02:23:46;;;;;;;4.53;1.10;;;6.10;99.90;;;;;;5012404;28;20197;-78
2021/10/22 02:26:13;;;;;;;0.50;0.50;;;6.10;99.90;;;;;;5012411;28;20196;-78
2021/10/22 02:28:40;;;;;;;8.23;1.95;;;6.10;99.90;;;;;;5012624;28;20689;-78
2021/10/22 02:31:08;;;;;;;0.77;0.77;;;6.10;99.90;;;;;;5011926;28;20196;-78
2021/10/22 02:33:35;;;;;;;0.85;0.85;;;6.10;99.90;;;;;;5013735;28;20662;-78
2021/10/22 02:36:02;;;;;;;1.05;0.93;;;6.10;99.90;;;;;;5012299;28;20192;-78
2021/10/22 02:38:28;;;;;;;0.68;0.68;;;6.10;99.90;;;;;;5012406;28;20551;-78
2021/10/22 02:40:55;;;;;;;1.90;1.80;;;6.10;99.90;;;;;;5011833;28;20201;-78
2021/10/22 02:43:22;;;;;;;1.90;0.85;;;6.10;99.90;;;;;;5012331;28;20196;-80
2021/10/22 02:45:48;;;;;;;0.50;0.40;;;6.10;99.90;;;;;;5011914;28;20203;-79
2021/10/22 02:48:17;;;;;;;0.50;0.40;;;6.00;99.90;;;;;;5011931;28;20193;-78
2021/10/22 02:50:43;;;;;;;0.50;0.40;;;6.00;99.90;;;;;;5012207;28;20208;-79
2021/10/22 02:53:10;;;;;;;2.38;1.75;;;6.00;99.90;;;;;;5011679;28;20586;-79
2021/10/22 02:55:37;;;;;;;1.25;1.20;;;6.00;99.90;;;;;;5011853;28;20200;-78
2021/10/22 02:58:03;;;;;;;7.13;2.20;;;5.90;99.90;;;;;;5012185;28;20215;-78
2021/10/22 03:00:30;;;;;;;0.50;0.50;;;5.90;99.90;;;;;;5011442;28;20703;-79
2021/10/22 03:02:57;;;;;;;1.23;0.77;;;5.90;99.90;;;;;;5011983;28;20217;-78
2021/10/22 03:05:25;;;;;;;0.75;0.57;;;5.90;99.90;;;;;;5012075;28;20212;-79
2021/10/22 03:07:52;;;;;;;0.90;0.70;;;5.90;99.90;;;;;;5012300;28;20218;-78
2021/10/22 03:10:19;;;;;;;0.98;0.93;;;5.90;99.90;;;;;;5011657;28;20200;-78
2021/10/22 03:12:45;;;;;;;1.85;1.25;;;5.90;99.90;;;;;;5011917;28;20217;-78
2021/10/22 03:15:12;;;;;;;3.83;1.98;;;5.90;99.90;;;;;;5011548;28;20536;-78
2021/10/22 03:17:39;;;;;;;5.38;1.02;;;5.90;99.90;;;;;;5011894;28;20574;-78
2021/10/22 03:20:07;;;;;;;0.70;0.70;;;5.90;99.90;;;;;;5011594;28;20200;-75
2021/10/22 03:22:35;;;;;;;1.85;1.67;;;5.90;99.90;;;;;;5011174;28;20228;-78
2021/10/22 03:25:03;;;;;;;0.60;0.50;;;5.80;99.90;;;;;;5011643;28;20539;-78
2021/10/22 03:27:29;;;;;;;0.60;0.52;;;5.80;99.90;;;;;;5011880;28;20558;-77
2021/10/22 03:29:56;;;;;;;0.65;0.65;;;5.80;99.90;;;;;;5011704;28;20226;-79
2021/10/22 03:32:23;;;;;;;1.25;0.60;;;5.80;99.90;;;;;;5011114;28;20231;-79
2021/10/22 03:34:50;;;;;;;9.18;1.10;;;5.80;99.90;;;;;;5012047;28;20200;-79
2021/10/22 03:37:17;;;;;;;7.05;2.28;;;5.80;99.90;;;;;;5011319;28;20197;-77
2021/10/22 03:39:45;;;;;;;5.20;1.60;;;5.80;99.90;;;;;;5011721;28;20202;-78
2021/10/22 03:42:12;;;;;;;0.50;0.40;;;5.80;99.90;;;;;;5011735;28;20216;-79
2021/10/22 03:44:38;;;;;;;0.95;0.95;;;5.80;99.90;;;;;;5011479;28;20566;-77
2021/10/22 03:47:05;;;;;;;14.00;2.92;;;5.80;99.90;;;;;;5011889;28;20539;-78
2021/10/22 03:49:32;;;;;;;1.88;0.90;;;5.80;99.90;;;;;;5011485;28;20196;-77
2021/10/22 03:51:59;;;;;;;0.93;0.63;;;5.70;99.90;;;;;;5011178;28;20224;-78
2021/10/22 03:54:26;;;;;;;1.45;0.80;;;5.80;99.90;;;;;;5010914;28;20193;-78
2021/10/22 03:56:54;;;;;;;0.65;0.50;;;5.70;99.90;;;;;;5012452;28;20243;-79
2021/10/22 03:59:20;;;;;;;1.45;1.35;;;5.70;99.90;;;;;;5015593;28;20655;-79
2021/10/22 04:01:49;;;;;;;13.00;3.60;;;5.70;99.90;;;;;;5014526;28;20217;-77
2021/10/22 04:04:16;;;;;;;1.13;1.02;;;5.70;99.90;;;;;;5015172;28;20197;-78
2021/10/22 04:06:43;;;;;;;1.30;1.23;;;5.70;99.90;;;;;;5014819;28;20204;-78
2021/10/22 04:09:10;;;;;;;2.75;1.95;;;5.70;99.90;;;;;;5015398;28;20564;-78
2021/10/22 04:11:37;;;;;;;1.23;1.13;;;5.70;99.90;;;;;;5014975;28;20690;-78
2021/10/22 04:14:05;;;;;;;5.28;1.65;;;5.70;99.90;;;;;;5014909;28;20292;-77
2021/10/22 04:16:31;;;;;;;6.82;1.10;;;5.70;99.90;;;;;;5014933;28;20207;-77
2021/10/22 04:18:58;;;;;;;0.57;0.55;;;5.70;99.90;;;;;;5014618;28;20215;-78
2021/10/22 04:21:25;;;;;;;0.50;0.40;;;5.70;99.90;;;;;;5014229;28;20219;-78
2021/10/22 04:23:52;;;;;;;1.88;1.48;;;5.70;99.90;;;;;;5014673;28;20689;-76
2021/10/22 04:26:18;;;;;;;10.15;2.05;;;5.70;99.90;;;;;;5014606;28;20211;-78
2021/10/22 04:28:45;;;;;;;6.93;1.15;;;5.70;99.90;;;;;;5015087;28;20216;-78
2021/10/22 04:31:14;;;;;;;0.50;0.40;;;5.70;99.90;;;;;;5014124;28;20228;-78
2021/10/22 04:33:40;;;;;;;0.60;0.60;;;5.70;99.90;;;;;;5014833;28;20200;-77
2021/10/22 04:36:09;;;;;;;1.77;0.82;;;5.70;99.90;;;;;;5014657;28;20200;-78
2021/10/22 04:41:19;;;;;;;0.50;0.40;;;5.70;99.90;;;;;;5013691;28;20214;-78
2021/10/22 04:43:49;;;;;;;1.35;0.95;;;5.60;99.90;;;;;;5014466;28;20204;-78
2021/10/22 04:46:17;;;;;;;3.35;1.50;;;5.60;99.90;;;;;;5014401;28;20570;-78
2021/10/22 04:48:45;;;;;;;0.80;0.57;;;5.60;99.90;;;;;;5014045;28;20193;-78
2021/10/22 04:51:12;;;;;;;0.60;0.50;;;5.60;99.90;;;;;;5014319;28;20224;-78
2021/10/22 04:53:39;;;;;;;0.60;0.40;;;5.60;99.90;;;;;;5013534;28;20200;-77
2021/10/22 04:56:06;;;;;;;2.10;0.70;;;5.70;99.90;;;;;;5014051;28;20207;-78
2021/10/22 04:58:33;;;;;;;1.38;1.00;;;5.70;99.90;;;;;;5014202;28;20236;-79
2021/10/22 05:01:00;;;;;;;1.02;1.02;;;5.80;99.90;;;;;;5013714;28;20243;-78
2021/10/22 05:03:29;;;;;;;0.60;0.57;;;5.80;99.90;;;;;;5013977;28;20662;-78
2021/10/22 05:05:55;;;;;;;0.80;0.50;;;5.90;99.90;;;;;;5014095;28;20622;-78
2021/10/22 05:08:22;;;;;;;1.05;1.05;;;6.00;99.90;;;;;;5013529;28;20205;-77
2021/10/22 05:10:49;;;;;;;4.30;2.80;;;6.10;99.90;;;;;;5013178;28;20193;-77
2021/10/22 05:13:16;;;;;;;0.50;0.40;;;6.10;99.90;;;;;;5013987;28;20585;-79
2021/10/22 05:15:43;;;;;;;3.42;1.45;;;6.10;99.90;;;;;;5013870;28;20193;-78
2021/10/22 05:18:10;;;;;;;1.35;1.25;;;6.20;99.90;;;;;;5013243;28;20213;-79
2021/10/22 05:20:38;;;;;;;0.50;0.40;;;6.20;99.90;;;;;;5013744;28;20193;-78
2021/10/22 05:23:05;;;;;;;0.50;0.40;;;6.30;99.90;;;;;;5013925;28;20223;-77
2021/10/22 05:25:32;;;;;;;1.67;1.58;;;6.30;99.90;;;;;;5013187;28;20208;-77
2021/10/22 05:27:59;;;;;;;3.47;1.05;;;6.30;99.90;;;;;;5013715;28;20547;-77
2021/10/22 05:30:26;;;;;;;0.50;0.40;;;6.40;99.90;;;;;;5013431;28;20197;-78
2021/10/22 05:32:53;;;;;;;6.85;3.90;;;6.30;99.90;;;;;;5013129;28;20618;-78
2021/10/22 05:35:19;;;;;;;1.55;1.23;;;6.40;99.90;;;;;;5013498;28;20196;-77
2021/10/22 05:37:48;;;;;;;0.50;0.40;;;6.40;99.90;;;;;;5013398;28;20662;-77
2021/10/22 05:40:14;;;;;;;3.08;2.15;;;6.40;99.90;;;;;;5012640;28;20239;-78
2021/10/22 05:42:41;;;;;;;0.60;0.50;;;6.40;99.90;;;;;;5013053;28;20220;-78
2021/10/22 05:45:08;;;;;;;1.20;1.10;;;6.40;99.90;;;;;;5013350;28;20197;-78
2021/10/22 05:47:36;;;;;;;3.35;0.88;;;6.40;99.90;;;;;;5013277;28;20200;-78
2021/10/22 05:50:04;;;;;;;1.05;1.05;;;6.40;99.90;;;;;;5012832;28;20200;-76
2021/10/22 05:52:31;;;;;;;0.50;0.40;;;6.40;99.90;;;;;;5012320;28;20221;-79
2021/10/22 05:54:59;;;;;;;3.38;1.52;;;6.40;99.90;;;;;;5012580;28;20219;-76
2021/10/22 05:57:25;;;;;;;2.33;0.80;;;6.40;99.90;;;;;;5012825;28;20558;-78
2021/10/22 05:59:53;;;;;;;1.88;0.85;;;6.40;99.90;;;;;;5012854;28;20213;-78
2021/10/22 06:02:20;;;;;;;1.38;0.73;;;6.40;99.90;;;;;;5012348;28;20272;-78
2021/10/22 06:04:47;;;;;;;0.95;0.65;;;6.50;99.90;;;;;;5012786;28;20292;-78
2021/10/22 06:07:14;;;;;;;0.50;0.40;;;6.50;99.90;;;;;;5012295;28;20196;-79
2021/10/22 06:09:41;;;;;;;3.15;1.02;;;6.40;99.90;;;;;;5012769;28;20610;-78
2021/10/22 06:12:09;;;;;;;1.35;1.25;;;6.40;99.90;;;;;;5012265;28;20243;-78
2021/10/22 06:14:36;;;;;;;1.58;0.70;;;6.40;99.90;;;;;;5012306;28;20207;-78
2021/10/22 06:17:04;;;;;;;1.98;1.02;;;6.40;99.90;;;;;;5012092;28;20285;-78
2021/10/22 06:19:35;;;;;;;0.90;0.80;;;6.50;99.90;;;;;;5011094;28;20259;-78
2021/10/22 06:22:18;;;;;;;1.08;1.08;;;6.50;99.90;;;;;;5011825;28;20216;-78
2021/10/22 06:24:45;;;;;;;0.50;0.50;;;6.50;99.90;;;;;;5012239;28;20291;-77
2021/10/22 06:27:13;;;;;;;1.13;0.68;;;6.50;99.90;;;;;;5012126;28;20589;-77
2021/10/22 06:29:40;;;;;;;18.58;1.77;;;6.40;99.90;;;;;;5011822;28;20192;-77
2021/10/22 06:32:07;;;;;;;3.55;1.92;;;6.40;99.90;;;;;;5011568;28;20228;-78
2021/10/22 06:34:34;;;;;;;1.35;1.23;;;6.40;99.90;;;;;;5012439;28;20212;-78
2021/10/22 06:37:01;;;;;;;1.88;0.98;;;6.50;99.90;;;;;;5012495;28;20197;-75
2021/10/22 06:39:28;;;;;;;1.65;0.80;;;6.50;99.90;;;;;;5011890;28;20748;-77
2021/10/22 06:41:54;;;;;;;2.08;1.05;;;6.60;99.90;;;;;;5011952;28;20223;-74
2021/10/22 06:44:25;;;;;;;0.60;0.60;;;6.80;99.90;;;;;;5011684;28;20212;-77
2021/10/22 06:46:52;;;;;;;4.97;1.10;;;6.80;99.90;;;;;;5012029;28;20200;-78
2021/10/22 06:49:19;;;;;;;3.95;1.95;;;6.80;99.90;;;;;;5011790;28;20220;-74
2021/10/22 06:51:45;;;;;;;0.88;0.65;;;6.90;99.90;;;;;;5011768;28;20400;-78
2021/10/22 06:54:12;;;;;;;0.93;0.93;;;6.90;99.90;;;;;;5010798;28;20196;-78
2021/10/22 06:56:39;;;;;;;1.60;1.50;;;7.00;99.90;;;;;;5011792;28;20221;-78
2021/10/22 06:59:06;;;;;;;0.60;0.50;;;7.10;99.90;;;;;;5011458;28;20216;-76
2021/10/22 07:01:34;;;;;;;1.13;0.82;;;7.20;99.90;;;;;;5011428;28;20218;-78
2021/10/22 07:04:01;;;;;;;1.40;1.30;;;7.10;99.90;;;;;;5010875;28;20196;-79
2021/10/22 07:09:12;;;;;;;1.92;1.08;;;7.20;99.90;;;;;;5011763;28;20206;-77
2021/10/22 07:11:39;;;;;;;0.50;0.50;;;7.20;99.90;;;;;;5010808;28;20761;-79
2021/10/22 07:14:07;;;;;;;1.77;1.67;;;7.50;99.90;;;;;;5011749;28;20212;-78
2021/10/22 07:16:38;;;;;;;1.67;1.35;;;7.70;99.90;;;;;;5011219;28;20206;-78
2021/10/22 07:19:05;;;;;;;2.20;2.03;;;7.60;99.90;;;;;;5011484;28;20213;-74
2021/10/22 07:21:33;;;;;;;2.00;0.60;;;7.50;99.90;;;;;;5011338;28;20650;-77
2021/10/22 07:24:05;;;;;;;3.15;1.63;;;7.40;99.90;;;;;;5010906;28;20700;-76
2021/10/22 07:26:32;;;;;;;6.95;1.33;;;7.40;99.90;;;;;;5011967;28;20180;-78
2021/10/22 07:28:59;;;;;;;0.77;0.60;;;7.40;99.90;;;;;;5011363;28;20198;-78
2021/10/22 07:31:25;;;;;;;0.82;0.82;;;7.40;99.90;;;;;;5012620;28;20254;-78
2021/10/22 07:33:53;;;;;;;0.60;0.60;;;7.60;99.90;;;;;;5015420;28;20200;-78
2021/10/22 07:36:20;;;;;;;0.60;0.50;;;7.90;99.90;;;;;;5015230;28;20200;-78
2021/10/22 07:38:47;;;;;;;0.60;0.50;;;8.40;99.90;;;;;;5015107;28;20288;-79
2021/10/22 07:41:15;;;;;;;2.35;1.85;;;8.30;99.90;;;;;;5015215;28;20218;-78
2021/10/22 07:43:42;;;;;;;0.73;0.65;;;8.40;99.90;;;;;;5015221;28;20293;-78
2021/10/22 07:46:09;;;;;;;0.60;0.60;;;8.30;99.90;;;;;;5015150;28;20211;-77
2021/10/22 07:48:36;;;;;;;6.65;1.80;;;8.20;99.90;;;;;;5014548;28;20573;-78
2021/10/22 07:51:05;;;;;;;2.78;2.05;;;8.30;99.90;;;;;;5014852;28;20204;-77
2021/10/22 07:53:31;;;;;;;0.80;0.80;;;8.30;99.90;;;;;;5014966;28;20196;-79
2021/10/22 07:55:58;;;;;;;0.70;0.60;;;8.30;99.90;;;;;;5014993;28;20578;-78
2021/10/22 07:58:25;;;;;;;3.50;1.25;;;8.40;99.90;;;;;;5015033;28;20203;-78
2021/10/22 08:00:52;;;;;;;0.60;0.50;;;8.30;99.90;;;;;;5014292;28;20234;-78
2021/10/22 08:03:19;;;;;;;2.45;0.98;;;8.40;99.90;;;;;;5014284;28;20663;-78
2021/10/22 08:05:46;;;;;;;0.50;0.40;;;8.40;99.90;;;;;;5015027;28;20198;-78
2021/10/22 08:08:14;;;;;;;2.45;1.13;;;8.50;99.90;;;;;;5015162;28;20586;-78
2021/10/22 08:10:42;;;;;;;5.85;0.80;;;10.00;99.90;;;;;;5014150;28;20197;-78
2021/10/22 08:13:11;;;;;;;2.75;0.88;;;10.50;99.90;;;;;;5014338;28;20218;-78
2021/10/22 08:15:40;;;;;;;0.70;0.70;;;10.30;99.90;;;;;;5014890;28;20202;-78
2021/10/22 08:18:08;;;;;;;0.80;0.73;;;9.70;99.90;;;;;;5014740;28;20205;-77
2021/10/22 08:20:36;;;;;;;0.77;0.77;;;9.30;99.90;;;;;;5014400;28;20246;-78
2021/10/22 08:23:04;;;;;;;1.23;0.68;;;9.00;99.90;;;;;;5014895;28;20656;-78
2021/10/22 08:25:32;;;;;;;0.52;0.50;;;8.80;99.90;;;;;;5014192;28;20669;-78
2021/10/22 08:27:59;;;;;;;2.25;0.70;;;8.70;99.90;;;;;;5014833;28;20696;-76
2021/10/22 08:30:27;;;;;;;1.75;0.75;;;8.70;99.90;;;;;;5014502;28;20204;-78
2021/10/22 08:32:56;;;;;;;0.50;0.40;;;8.80;99.90;;;;;;5071621;23;20251;-81
2021/10/22 08:35:25;;;;;;;0.60;0.60;;;8.90;99.90;;;;;;5032055;28;20292;-81
2021/10/22 08:37:52;;;;;;;3.42;1.20;;;9.00;99.90;;;;;;5039526;28;20197;-80
2021/10/22 08:40:21;;;;;;;0.52;0.52;;;9.10;99.90;;;;;;5039055;28;20217;-81
2021/10/22 08:42:51;;;;;;;0.68;0.68;;;9.10;99.90;;;;;;5039001;28;20728;-80
2021/10/22 08:45:18;;;;;;;0.60;0.60;;;9.00;99.90;;;;;;5039872;28;20235;-81
2021/10/22 08:47:46;;;;;;;0.60;0.57;;;9.00;99.90;;;;;;5039653;28;20234;-82
2021/10/22 08:50:15;;;;;;;2.25;1.20;;;9.00;99.90;;;;;;5038579;28;20634;-81
2021/10/22 08:52:43;;;;;;;0.90;0.90;;;9.10;99.90;;;;;;5037544;28;20320;-82
2021/10/22 08:55:12;;;;;;;1.10;1.00;;;9.10;99.90;;;;;;5038177;28;20207;-82
2021/10/22 08:57:42;;;;;;;0.50;0.35;;;9.00;99.90;;;;;;5038444;28;20242;-81
2021/10/22 09:00:12;;;;;;;4.85;1.02;;;9.00;99.90;;;;;;5037952;28;20222;-81
2021/10/22 09:02:39;;;;;;;0.70;0.70;;;9.00;99.90;;;;;;5038605;28;20264;-81
2021/10/22 09:05:13;;;;;;;2.25;1.15;;;8.90;99.90;;;;;;5037942;28;20208;-81
2021/10/22 09:07:43;;;;;;;1.58;1.50;;;8.90;99.90;;;;;;5038263;28;20630;-81
2021/10/22 09:10:16;;;;;;;0.70;0.68;;;8.90;99.90;;;;;;5037952;28;20251;-82
2021/10/22 09:12:48;;;;;;;0.50;0.40;;;9.00;99.90;;;;;;5038352;28;20222;-80
2021/10/22 09:15:21;;;;;;;1.30;0.63;;;9.20;99.90;;;;;;5038318;28;20203;-80
2021/10/22 09:17:48;;;;;;;9.52;1.65;;;9.50;99.90;;;;;;5038014;28;20195;-82
2021/10/22 09:20:16;;;;;;;0.60;0.50;;;9.80;99.90;;;;;;5040166;28;20221;-82
2021/10/22 09:22:49;;;;;;;5.32;1.10;;;10.10;99.90;;;;;;5038104;28;20241;-81
2021/10/22 09:25:19;;;;;;;0.50;0.47;;;10.20;99.90;;;;;;5038323;28;20176;-82
2021/10/22 09:27:49;;;;;;;2.35;1.08;;;10.30;99.90;;;;;;5037990;28;20199;-80
2021/10/22 09:30:43;;;;;;;0.60;0.50;;;10.40;99.90;;;;;;5037682;28;20204;-81
2021/10/22 09:33:15;;;;;;;0.60;0.52;;;10.60;99.90;;;;;;5037348;28;20229;-82
2021/10/22 09:35:44;;;;;;;0.80;0.70;;;10.70;99.90;;;;;;5038019;28;20203;-83
2021/10/22 09:38:16;;;;;;;0.50;0.50;;;10.40;99.90;;;;;;5037459;28;20197;-82
2021/10/22 09:40:43;;;;;;;0.50;0.40;;;10.00;99.90;;;;;;5037851;28;20321;-82
2021/10/22 09:43:22;;;;;;;1.25;1.00;;;10.10;99.90;;;;;;5038151;28;20220;-81
2021/10/22 09:45:53;;;;;;;1.17;0.82;;;10.20;99.90;;;;;;5037383;28;20224;-81
2021/10/22 09:48:28;;;;;;;1.33;1.23;;;10.50;99.90;;;;;;5038034;28;20191;-80
2021/10/22 09:51:19;;;;;;;6.82;0.88;;;10.80;99.90;;;;;;5037665;28;20204;-81
2021/10/22 09:53:46;;;;;;;1.40;0.70;;;10.90;99.90;;;;;;5034147;28;20597;-82
2021/10/22 09:56:20;;;;;;;0.50;0.45;;;11.30;99.90;;;;;;5038385;28;20198;-82
2021/10/22 09:58:54;;;;;;;0.50;0.40;;;11.20;99.90;;;;;;5037741;28;20252;-82
2021/10/22 10:01:29;;;;;;;0.50;0.40;;;11.10;99.90;;;;;;5042715;28;20201;-82
2021/10/22 10:03:58;;;;;;;1.05;0.75;;;11.40;99.90;;;;;;5037194;28;20217;-82
2021/10/22 10:06:26;;;;;;;5.65;1.20;;;11.40;99.90;;;;;;5037096;28;20249;-81
2021/10/22 10:08:53;;;;;;;1.15;0.45;;;11.50;99.90;;;;;;5038772;28;20256;-82
2021/10/22 10:11:20;;;;;;;0.95;0.95;;;11.80;99.90;;;;;;5036999;28;20201;-81
2021/10/22 10:13:48;;;;;;;0.50;0.45;;;12.00;99.90;;;;;;5037158;28;20219;-82
2021/10/22 10:16:17;;;;;;;2.35;0.98;;;12.40;99.90;;;;;;5044776;28;20656;-82
2021/10/22 10:18:50;;;;;;;42.35;1.88;;;12.30;99.90;;;;;;5037168;28;20209;-81
2021/10/22 10:21:20;;;;;;;1.90;0.93;;;12.30;99.90;;;;;;5037762;28;20367;-81
2021/10/22 10:23:49;;;;;;;0.50;0.40;;;12.10;99.90;;;;;;5037486;28;20250;-82
2021/10/22 10:26:21;;;;;;;0.60;0.50;;;11.80;99.90;;;;;;5038116;28;20453;-80
2021/10/22 10:28:50;;;;;;;1.30;1.27;;;12.00;99.90;;;;;;5037320;28;20438;-82
2021/10/22 10:31:37;;;;;;;0.70;0.60;;;12.20;99.90;;;;;;5036409;28;20207;-81
2021/10/22 10:34:35;;;;;;;1.70;1.15;;;12.10;99.90;;;;;;5037229;28;20915;-80
2021/10/22 10:37:04;;;;;;;2.10;0.60;;;12.70;99.90;;;;;;5036975;28;20390;-80
2021/10/22 10:39:57;;;;;;;0.50;0.30;;;13.20;99.90;;;;;;5037292;28;20446;-81
2021/10/22 10:42:27;;;;;;;0.50;0.37;;;13.70;99.90;;;;;;5035707;28;20466;-82
2021/10/22 10:44:55;;;;;;;1.00;0.60;;;14.30;99.90;;;;;;5037143;28;20905;-81
2021/10/22 10:47:48;;;;;;;0.60;0.50;;;14.70;99.90;;;;;;5037155;28;20449;-81
2021/10/22 10:50:21;;;;;;;0.50;0.40;;;14.30;99.90;;;;;;5036689;28;20443;-81
2021/10/22 10:52:53;;;;;;;0.50;0.30;;;13.70;99.90;;;;;;5036716;28;20458;-82
2021/10/22 10:55:26;;;;;;;2.30;0.50;;;13.20;99.90;;;;;;5036645;28;20491;-81
2021/10/22 10:57:55;;;;;;;5.80;4.00;;;12.90;99.90;;;;;;5036767;28;20445;-81
2021/10/22 11:00:24;;;;;;;1.80;1.03;;;12.70;99.90;;;;;;5036457;28;20480;-81
2021/10/22 11:03:13;;;;;;;0.50;0.40;;;12.60;99.90;;;;;;5036722;28;20493;-82
2021/10/22 11:06:09;;;;;;;0.50;0.40;;;12.50;99.90;;;;;;5036403;28;20187;-81
2021/10/22 11:08:47;;;;;;;0.50;0.40;;;12.50;99.90;;;;;;5036738;28;20266;-80
2021/10/22 11:11:41;;;;;;;2.00;1.90;;;12.50;99.90;;;;;;5035737;28;20443;-80
2021/10/22 11:14:19;;;;;;;2.63;1.93;;;12.40;99.90;;;;;;5022962;28;20219;-82
2021/10/22 11:16:57;;;;;;;0.57;0.47;;;12.20;99.90;;;;;;5036853;28;20448;-82
2021/10/22 11:19:27;;;;;;;0.50;0.40;;;12.10;99.90;;;;;;5035729;28;20187;-82
2021/10/22 11:21:57;;;;;;;2.85;0.95;;;12.00;99.90;;;;;;5035894;28;20573;-81
2021/10/22 11:24:26;;;;;;;0.87;0.83;;;12.00;99.90;;;;;;5037205;28;20199;-81
2021/10/22 11:27:02;;;;;;;0.60;0.40;;;11.80;99.90;;;;;;5036906;28;20453;-81
2021/10/22 11:29:30;;;;;;;0.73;0.52;;;11.70;99.90;;;;;;5039277;28;20444;-81
2021/10/22 11:32:00;;;;;;;0.63;0.60;;;11.70;99.90;;;;;;5036458;28;20206;-81
2021/10/22 11:34:28;;;;;;;0.50;0.40;;;11.70;99.90;;;;;;5037096;28;20228;-80
2021/10/22 11:37:04;;;;;;;0.50;0.40;;;11.80;99.90;;;;;;5039462;28;20202;-81
2021/10/22 11:39:34;;;;;;;0.60;0.50;;;11.70;99.90;;;;;;5037730;28;20204;-81
2021/10/22 11:42:12;;;;;;;0.50;0.40;;;11.80;99.90;;;;;;5037598;28;20251;-81
2021/10/22 11:44:40;;;;;;;1.33;0.77;;;12.00;99.90;;;;;;5037996;28;20198;-80
2021/10/22 11:47:10;;;;;;;0.80;0.60;;;12.00;99.90;;;;;;5037298;28;20198;-81
2021/10/22 11:49:38;;;;;;;1.25;0.65;;;11.90;99.90;;;;;;5036303;28;20198;-81
2021/10/22 11:52:08;;;;;;;0.50;0.40;;;11.70;99.90;;;;;;5036111;28;20627;-82
2021/10/22 11:54:35;;;;;;;1.20;0.82;;;11.60;99.90;;;;;;5035718;28;20195;-81
2021/10/22 11:57:04;;;;;;;0.50;0.40;;;11.50;99.90;;;;;;5036641;28;20205;-80
2021/10/22 11:59:32;;;;;;;0.50;0.40;;;11.40;99.90;;;;;;5036699;28;20209;-81
2021/10/22 12:02:07;;;;;;;0.50;0.40;;;11.50;99.90;;;;;;5036405;28;20318;-81
2021/10/22 12:04:35;;;;;;;0.50;0.40;;;11.70;99.90;;;;;;5037595;28;20203;-81
2021/10/22 12:07:03;;;;;;;1.23;0.50;;;11.70;99.90;;;;;;5038381;28;20575;-79
2021/10/22 12:09:33;;;;;;;1.67;0.60;;;11.80;99.90;;;;;;5039927;28;20199;-82
2021/10/22 12:12:02;;;;;;;2.40;0.80;;;11.70;99.90;;;;;;5039302;28;20260;-80
2021/10/22 12:14:34;;;;;;;1.13;0.70;;;11.60;99.90;;;;;;5039871;28;20436;-81
2021/10/22 12:17:02;;;;;;;0.50;0.40;;;11.60;99.90;;;;;;5037930;28;20202;-80
2021/10/22 12:19:29;;;;;;;0.70;0.70;;;11.60;99.90;;;;;;5040379;28;20203;-82
2021/10/22 12:21:57;;;;;;;0.60;0.55;;;11.60;99.90;;;;;;5040965;28;20222;-82
2021/10/22 12:24:24;;;;;;;0.50;0.40;;;11.60;99.90;;;;;;5041477;28;20206;-81
2021/10/22 12:27:04;;;;;;;0.88;0.70;;;11.70;99.90;;;;;;5041586;28;20194;-82
2021/10/22 12:30:06;;;;;;;0.57;0.55;;;11.70;99.90;;;;;;5041735;28;20663;-82
2021/10/22 12:32:42;;;;;;;0.60;0.50;;;11.60;99.90;;;;;;5041144;28;20231;-81
2021/10/22 12:35:20;;;;;;;1.00;1.00;;;11.70;99.90;;;;;;5041724;28;20242;-80
2021/10/22 12:37:57;;;;;;;0.50;0.30;;;11.80;99.90;;;;;;5040746;28;20671;-81
2021/10/22 12:40:26;;;;;;;0.50;0.40;;;11.90;99.90;;;;;;5039941;28;20205;-82
2021/10/22 12:43:13;;;;;;;0.50;0.40;;;12.00;99.90;;;;;;5041135;28;20225;-78
2021/10/22 12:45:42;;;;;;;0.75;0.63;;;12.20;99.90;;;;;;5041921;28;20191;-81
2021/10/22 12:48:10;;;;;;;1.60;1.03;;;12.40;99.90;;;;;;5041166;28;20363;-82
2021/10/22 12:50:39;;;;;;;0.60;0.40;;;12.40;99.90;;;;;;5040670;28;20520;-82
2021/10/22 12:53:09;;;;;;;3.60;1.05;;;12.40;99.90;;;;;;5041266;28;20230;-82
2021/10/22 12:55:37;;;;;;;1.75;0.88;;;12.40;99.90;;;;;;5041366;28;20202;-82
2021/10/22 12:58:19;;;;;;;1.05;0.60;;;12.50;99.90;;;;;;5041496;28;20203;-81
2021/10/22 13:01:04;;;;;;;0.60;0.60;;;12.90;99.90;;;;;;5040741;28;20226;-81
2021/10/22 13:03:31;;;;;;;1.77;1.67;;;12.90;99.90;;;;;;5040419;28;20490;-81
2021/10/22 13:06:08;;;;;;;4.50;1.03;;;13.10;99.90;;;;;;5040386;28;20442;-81
2021/10/22 13:08:41;;;;;;;0.60;0.60;;;12.80;99.90;;;;;;5040581;28;20442;-81